Time;durP1;ratioP1;P1;durP2;ratioP2;P2;SDS_P1;SDS_P2;PMS_P1;PMS_P2;Temp;Humidity;BMP_temperature;BMP_pressure;BME280_temperature;BME280_humidity;BME280_pressure;Samples;Min_cycle;Max_cycle;Signal;HPM_P1;HPM_P2
2022/08/18 00:01:52;;;;;;;3.72;3.42;;;24.30;65.40;;;;;;5127303;27;20223;-71
2022/08/18 00:04:18;;;;;;;3.45;3.15;;;24.30;65.10;;;;;;5095588;28;20190;-70
2022/08/18 00:06:44;;;;;;;3.78;3.47;;;24.20;65.20;;;;;;5078140;28;20180;-70
2022/08/18 00:09:11;;;;;;;3.88;3.58;;;24.30;65.30;;;;;;5113558;28;20671;-70
2022/08/18 00:11:41;;;;;;;3.83;3.53;;;24.30;65.50;;;;;;5095073;28;20702;-70
2022/08/18 00:14:18;;;;;;;3.42;3.22;;;24.20;65.10;;;;;;5078526;28;20210;-70
2022/08/18 00:16:44;;;;;;;3.60;3.40;;;24.30;65.40;;;;;;5095014;28;20217;-71
2022/08/18 00:19:10;;;;;;;3.53;3.22;;;24.30;65.50;;;;;;5095050;28;20212;-70
2022/08/18 00:21:36;;;;;;;3.70;3.40;;;24.20;65.40;;;;;;5112080;28;20302;-70
2022/08/18 00:24:03;;;;;;;3.75;3.45;;;24.30;65.40;;;;;;5095335;28;20176;-70
2022/08/18 00:26:29;;;;;;;4.55;3.70;;;24.20;65.40;;;;;;5112765;28;20259;-70
2022/08/18 00:28:55;;;;;;;4.15;3.75;;;24.20;65.40;;;;;;5078303;28;20767;-70
2022/08/18 00:31:21;;;;;;;3.90;3.60;;;24.20;65.40;;;;;;5112064;28;20184;-70
2022/08/18 00:33:47;;;;;;;4.28;3.97;;;24.20;65.30;;;;;;5113178;28;20190;-72
2022/08/18 00:36:12;;;;;;;3.92;3.63;;;24.20;65.40;;;;;;5112565;28;20271;-70
2022/08/18 00:38:39;;;;;;;3.58;3.38;;;24.20;65.40;;;;;;5095026;28;20566;-70
2022/08/18 00:41:05;;;;;;;3.63;3.35;;;24.30;65.50;;;;;;5095102;28;20667;-70
2022/08/18 00:43:41;;;;;;;3.47;3.28;;;24.20;65.40;;;;;;5111519;28;20180;-70
2022/08/18 00:46:23;;;;;;;3.78;3.55;;;24.20;65.40;;;;;;5112508;28;20211;-70
2022/08/18 00:48:51;;;;;;;3.45;3.25;;;24.20;65.40;;;;;;5094828;28;20317;-70
2022/08/18 00:51:50;;;;;;;3.85;3.45;;;24.20;65.40;;;;;;5094743;28;20195;-70
2022/08/18 00:54:26;;;;;;;3.58;3.38;;;24.20;65.40;;;;;;5105148;28;20238;-71
2022/08/18 00:56:59;;;;;;;3.58;3.28;;;24.20;65.40;;;;;;5093770;28;20209;-70
2022/08/18 00:59:41;;;;;;;3.63;3.42;;;24.20;65.40;;;;;;5095140;28;20248;-70
2022/08/18 01:02:28;;;;;;;3.35;3.13;;;24.20;65.40;;;;;;5111556;28;20211;-70
2022/08/18 01:05:05;;;;;;;3.50;3.28;;;24.20;65.40;;;;;;5094608;28;20179;-70
2022/08/18 01:07:44;;;;;;;3.30;3.00;;;24.20;65.40;;;;;;5111998;28;20226;-70
2022/08/18 01:10:15;;;;;;;3.40;3.20;;;24.30;65.50;;;;;;5094652;28;20208;-70
2022/08/18 01:12:49;;;;;;;3.90;3.60;;;24.20;65.40;;;;;;5110160;28;20191;-70
2022/08/18 01:15:18;;;;;;;3.60;3.33;;;24.20;65.40;;;;;;5094397;28;20665;-70
2022/08/18 01:23:27;;;;;;;3.70;3.40;;;24.20;65.40;;;;;;5112310;28;20190;-70
2022/08/18 01:26:05;;;;;;;3.38;3.17;;;24.20;65.40;;;;;;5093831;28;20659;-70
2022/08/18 01:28:36;;;;;;;3.65;3.35;;;24.20;65.40;;;;;;5112408;28;20323;-70
2022/08/18 01:31:04;;;;;;;3.45;3.22;;;24.20;65.40;;;;;;5112526;28;20233;-70
2022/08/18 01:33:42;;;;;;;3.72;3.53;;;24.20;65.40;;;;;;5112361;28;20172;-70
2022/08/18 01:36:20;;;;;;;3.50;3.30;;;24.20;65.40;;;;;;5093527;28;20212;-70
2022/08/18 01:38:51;;;;;;;4.03;3.72;;;24.20;65.40;;;;;;5112142;28;20576;-70
2022/08/18 01:41:20;;;;;;;3.55;3.35;;;24.20;65.40;;;;;;5111832;28;20211;-70
2022/08/18 01:43:48;;;;;;;3.92;3.65;;;24.20;65.40;;;;;;5112246;28;20271;-70
2022/08/18 01:46:19;;;;;;;3.67;3.38;;;24.20;65.40;;;;;;5093415;28;20179;-70
2022/08/18 01:48:47;;;;;;;3.88;3.58;;;24.20;65.40;;;;;;5093908;28;20204;-70
2022/08/18 01:51:14;;;;;;;3.35;3.13;;;24.20;65.40;;;;;;5077242;28;20188;-70
2022/08/18 01:53:41;;;;;;;3.78;3.47;;;24.20;65.40;;;;;;5109866;28;20321;-71
2022/08/18 01:56:08;;;;;;;3.28;3.08;;;24.20;65.40;;;;;;5093501;28;20192;-70
2022/08/18 01:58:35;;;;;;;3.55;3.30;;;24.20;65.40;;;;;;5093797;28;20230;-70
2022/08/18 02:01:03;;;;;;;3.15;2.95;;;24.20;65.40;;;;;;5110670;28;20188;-70
2022/08/18 02:03:37;;;;;;;3.33;3.13;;;24.20;65.40;;;;;;5093729;28;20193;-70
2022/08/18 02:06:08;;;;;;;3.65;3.35;;;24.20;65.40;;;;;;5093419;28;20562;-70
2022/08/18 02:08:35;;;;;;;3.25;3.05;;;24.20;65.40;;;;;;5093876;28;20207;-70
2022/08/18 02:11:02;;;;;;;3.15;2.88;;;24.20;65.40;;;;;;5093452;28;20270;-71
2022/08/18 02:13:28;;;;;;;3.58;3.38;;;24.20;65.40;;;;;;5093871;28;20188;-70
2022/08/18 02:15:55;;;;;;;3.47;3.28;;;24.20;65.40;;;;;;5093566;28;20207;-71
2022/08/18 02:18:26;;;;;;;3.45;3.25;;;24.20;65.40;;;;;;5103008;28;20209;-70
2022/08/18 02:20:57;;;;;;;3.30;3.00;;;24.20;65.40;;;;;;5087277;28;20283;-70
2022/08/18 02:23:23;;;;;;;3.20;3.00;;;24.20;65.40;;;;;;5110248;28;20185;-70
2022/08/18 02:25:50;;;;;;;3.35;3.13;;;24.10;65.30;;;;;;5099117;28;20208;-70
2022/08/18 02:28:16;;;;;;;3.60;3.33;;;24.10;65.30;;;;;;5097026;28;20224;-70
2022/08/18 02:30:42;;;;;;;3.38;3.08;;;24.20;65.40;;;;;;5080732;28;20263;-70
2022/08/18 02:33:10;;;;;;;3.22;3.03;;;24.10;65.30;;;;;;5097401;28;20195;-70
2022/08/18 02:35:37;;;;;;;3.47;3.20;;;24.10;65.30;;;;;;5080325;28;20188;-70
2022/08/18 02:38:06;;;;;;;3.03;2.83;;;24.10;65.30;;;;;;5115253;28;20195;-71
2022/08/18 02:40:34;;;;;;;3.75;3.45;;;24.20;65.40;;;;;;5097115;28;20564;-70
2022/08/18 02:43:07;;;;;;;3.53;3.33;;;24.10;65.30;;;;;;5096898;28;20216;-70
2022/08/18 02:45:36;;;;;;;3.50;3.25;;;24.10;65.30;;;;;;5115444;28;20249;-70
2022/08/18 02:48:03;;;;;;;3.42;3.22;;;24.20;65.40;;;;;;5113513;28;20239;-72
2022/08/18 02:50:29;;;;;;;3.40;3.20;;;24.20;65.40;;;;;;5113924;28;20184;-70
2022/08/18 02:52:55;;;;;;;3.30;3.10;;;24.10;65.30;;;;;;5096988;28;20199;-70
2022/08/18 02:55:22;;;;;;;3.70;3.50;;;24.10;65.30;;;;;;5097344;28;20223;-70
2022/08/18 02:57:48;;;;;;;3.45;3.25;;;24.10;65.30;;;;;;5079778;28;20212;-70
2022/08/18 03:00:16;;;;;;;4.28;3.97;;;24.10;65.30;;;;;;5115077;28;20188;-70
2022/08/18 03:02:48;;;;;;;4.10;3.80;;;24.20;65.40;;;;;;5079952;28;20710;-70
2022/08/18 03:05:15;;;;;;;3.80;3.55;;;24.20;65.60;;;;;;5113715;28;20219;-70
2022/08/18 03:07:41;;;;;;;3.72;3.42;;;24.10;65.30;;;;;;5079083;28;20202;-70
2022/08/18 03:10:08;;;;;;;4.10;3.80;;;24.10;65.40;;;;;;5096772;28;20655;-70
2022/08/18 03:12:35;;;;;;;4.00;3.65;;;24.10;65.60;;;;;;5113216;28;20188;-70
2022/08/18 03:15:02;;;;;;;4.18;3.92;;;24.10;65.50;;;;;;5096930;28;20180;-70
2022/08/18 03:17:28;;;;;;;4.13;3.83;;;24.10;65.40;;;;;;5114124;28;20184;-70
2022/08/18 03:19:53;;;;;;;4.50;4.20;;;24.20;65.60;;;;;;5113449;28;20184;-70
2022/08/18 03:22:19;;;;;;;4.25;3.95;;;24.10;65.60;;;;;;5114620;28;20212;-71
2022/08/18 03:24:45;;;;;;;4.00;3.70;;;24.10;65.40;;;;;;5113398;28;20191;-72
2022/08/18 03:27:11;;;;;;;4.10;3.80;;;24.10;65.60;;;;;;5112740;28;20279;-70
2022/08/18 03:29:37;;;;;;;4.35;3.97;;;24.10;65.60;;;;;;5079439;28;20184;-71
2022/08/18 03:32:06;;;;;;;3.88;3.58;;;24.20;65.70;;;;;;5113372;28;20252;-70
2022/08/18 03:34:32;;;;;;;3.70;3.40;;;24.10;65.60;;;;;;5113494;28;20188;-70
2022/08/18 03:36:58;;;;;;;4.25;3.95;;;24.10;65.60;;;;;;5112242;28;20187;-70
2022/08/18 03:39:26;;;;;;;4.07;3.78;;;24.10;65.70;;;;;;5096424;28;20208;-71
2022/08/18 03:41:53;;;;;;;4.05;3.80;;;24.10;65.80;;;;;;5096084;28;20212;-70
2022/08/18 03:44:21;;;;;;;3.97;3.67;;;24.10;65.80;;;;;;5078967;28;20187;-70
2022/08/18 03:46:49;;;;;;;4.15;3.85;;;24.10;65.70;;;;;;5113586;28;20172;-70
2022/08/18 03:49:16;;;;;;;4.40;4.00;;;24.10;65.80;;;;;;5095953;28;20209;-70
2022/08/18 03:51:45;;;;;;;4.03;3.72;;;24.10;65.80;;;;;;5114187;28;20184;-70
2022/08/18 03:54:15;;;;;;;4.43;4.03;;;24.10;65.80;;;;;;5095798;28;20184;-70
2022/08/18 03:56:43;;;;;;;3.60;3.40;;;24.10;65.80;;;;;;5112137;28;20667;-70
2022/08/18 03:59:21;;;;;;;4.10;3.80;;;24.10;65.90;;;;;;5113018;28;20218;-70
2022/08/18 04:01:52;;;;;;;3.97;3.70;;;24.10;65.80;;;;;;5095159;28;20211;-70
2022/08/18 04:04:22;;;;;;;4.10;3.80;;;24.10;65.80;;;;;;5095775;28;20184;-70
2022/08/18 04:06:55;;;;;;;4.10;3.80;;;24.10;65.80;;;;;;5094978;28;20176;-70
2022/08/18 04:09:24;;;;;;;3.72;3.33;;;24.10;65.80;;;;;;5095336;28;20208;-70
2022/08/18 04:11:51;;;;;;;3.63;3.33;;;24.10;66.00;;;;;;5095131;28;20205;-70
2022/08/18 04:14:22;;;;;;;3.78;3.47;;;24.10;65.90;;;;;;5095373;28;20184;-70
2022/08/18 04:16:48;;;;;;;4.00;3.70;;;24.10;65.90;;;;;;5113044;28;20538;-70
2022/08/18 04:19:16;;;;;;;3.90;3.60;;;24.10;65.90;;;;;;5095202;28;20207;-70
2022/08/18 04:21:44;;;;;;;4.35;4.05;;;24.10;65.80;;;;;;5095220;28;20230;-70
2022/08/18 04:24:13;;;;;;;3.88;3.58;;;24.10;65.90;;;;;;5095637;28;20262;-70
2022/08/18 04:26:46;;;;;;;4.15;3.85;;;24.10;65.90;;;;;;5112804;28;20240;-70
2022/08/18 04:29:15;;;;;;;3.80;3.60;;;24.10;65.80;;;;;;5095287;28;20231;-70
2022/08/18 04:31:41;;;;;;;4.50;4.20;;;24.10;66.00;;;;;;5095011;28;20183;-70
2022/08/18 04:34:07;;;;;;;3.72;3.42;;;24.10;65.90;;;;;;5078349;28;20205;-70
2022/08/18 04:36:35;;;;;;;4.15;3.83;;;24.10;65.90;;;;;;5077389;28;20180;-70
2022/08/18 04:39:04;;;;;;;3.83;3.60;;;24.10;65.90;;;;;;5113237;28;20202;-70
2022/08/18 04:41:30;;;;;;;3.90;3.60;;;24.10;65.90;;;;;;5078027;28;20244;-70
2022/08/18 04:43:58;;;;;;;4.07;3.78;;;24.10;65.90;;;;;;5111912;28;20184;-70
2022/08/18 04:46:26;;;;;;;3.95;3.70;;;24.10;66.00;;;;;;5111585;28;20263;-70
2022/08/18 04:48:57;;;;;;;4.05;3.75;;;24.10;66.00;;;;;;5112897;28;20196;-70
2022/08/18 04:51:27;;;;;;;4.05;3.75;;;24.10;66.00;;;;;;5112009;28;20190;-70
2022/08/18 04:53:54;;;;;;;4.32;4.00;;;24.10;66.10;;;;;;5094724;28;20191;-70
2022/08/18 04:56:34;;;;;;;3.80;3.60;;;24.10;66.00;;;;;;5094422;28;20180;-70
2022/08/18 04:59:12;;;;;;;4.15;3.88;;;24.10;66.00;;;;;;5112859;28;20218;-70
2022/08/18 05:01:44;;;;;;;3.70;3.42;;;24.10;66.10;;;;;;5077892;28;20211;-70
2022/08/18 05:04:12;;;;;;;4.13;3.83;;;24.10;66.10;;;;;;5094619;28;20184;-70
2022/08/18 05:06:39;;;;;;;4.50;4.10;;;24.10;66.10;;;;;;5110716;28;20180;-70
2022/08/18 05:09:09;;;;;;;3.85;3.55;;;24.10;66.20;;;;;;5111203;28;20235;-70
2022/08/18 05:11:36;;;;;;;4.32;4.03;;;24.10;66.10;;;;;;5077234;28;20270;-70
2022/08/18 05:14:07;;;;;;;4.20;3.90;;;24.10;66.00;;;;;;5094422;28;20188;-70
2022/08/18 05:16:35;;;;;;;3.95;3.65;;;24.10;66.00;;;;;;5110757;28;20556;-70
2022/08/18 05:19:07;;;;;;;4.18;3.88;;;24.10;66.10;;;;;;5094295;28;20683;-71
2022/08/18 05:21:35;;;;;;;3.92;3.63;;;24.10;66.00;;;;;;5111329;28;20216;-70
2022/08/18 05:24:03;;;;;;;4.13;3.83;;;24.10;66.10;;;;;;5111397;28;20183;-70
2022/08/18 05:26:29;;;;;;;3.70;3.50;;;24.10;66.10;;;;;;5093785;28;20187;-70
2022/08/18 05:28:55;;;;;;;4.30;4.00;;;24.10;66.20;;;;;;5112448;28;20203;-70
2022/08/18 05:31:24;;;;;;;4.10;3.80;;;24.10;66.20;;;;;;5094202;28;20181;-70
2022/08/18 05:33:54;;;;;;;3.90;3.60;;;24.10;66.20;;;;;;5111016;28;20287;-70
2022/08/18 05:36:50;;;;;;;4.35;4.05;;;24.00;66.00;;;;;;5111966;28;20538;-70
2022/08/18 05:40:13;;;;;;;3.83;3.53;;;24.00;66.00;;;;;;5112316;28;20276;-70
2022/08/18 05:42:41;;;;;;;3.92;3.63;;;24.00;66.00;;;;;;5071325;28;20232;-70
2022/08/18 05:45:17;;;;;;;4.38;3.97;;;24.00;66.00;;;;;;5093912;28;20180;-70
2022/08/18 05:47:43;;;;;;;4.13;3.75;;;24.10;66.20;;;;;;5111593;28;20206;-70
2022/08/18 05:50:16;;;;;;;3.97;3.67;;;24.10;66.40;;;;;;5112299;28;20179;-70
2022/08/18 05:52:53;;;;;;;4.20;3.90;;;24.10;66.30;;;;;;5093934;28;20184;-71
2022/08/18 05:58:49;;;;;;;4.03;3.72;;;24.10;66.30;;;;;;5040995;28;20214;-70
2022/08/18 06:01:23;;;;;;;4.20;3.85;;;24.00;66.10;;;;;;5081060;28;20651;-70
2022/08/18 06:03:56;;;;;;;4.25;3.95;;;24.00;66.10;;;;;;5097486;28;20184;-71
2022/08/18 06:06:28;;;;;;;4.20;3.90;;;24.00;66.20;;;;;;5077120;28;20561;-70
2022/08/18 06:09:12;;;;;;;3.67;3.47;;;24.00;66.10;;;;;;5094460;28;20655;-70
2022/08/18 06:11:38;;;;;;;4.10;3.80;;;24.00;66.20;;;;;;5095460;28;20263;-70
2022/08/18 06:14:05;;;;;;;4.43;4.03;;;24.00;66.20;;;;;;5094661;28;20277;-70
2022/08/18 06:16:52;;;;;;;3.55;3.25;;;24.00;66.20;;;;;;5093788;28;20192;-70
2022/08/18 06:19:51;;;;;;;3.65;3.42;;;24.00;66.30;;;;;;5077298;28;20209;-70
2022/08/18 06:22:38;;;;;;;4.07;3.78;;;24.00;66.30;;;;;;5095494;28;20671;-72
2022/08/18 06:25:33;;;;;;;3.90;3.60;;;24.00;66.40;;;;;;5077309;28;20185;-70
2022/08/18 06:28:14;;;;;;;4.35;3.97;;;24.00;66.30;;;;;;5093536;28;20208;-70
2022/08/18 06:31:14;;;;;;;4.32;4.03;;;24.10;66.50;;;;;;5094262;28;20181;-70
2022/08/18 06:34:01;;;;;;;4.63;4.28;;;24.10;66.50;;;;;;5095289;28;20719;-70
2022/08/18 06:37:03;;;;;;;3.83;3.58;;;24.00;66.30;;;;;;5088840;28;20180;-70
2022/08/18 06:39:44;;;;;;;4.40;4.10;;;24.00;66.50;;;;;;5115484;28;20236;-70
2022/08/18 06:42:09;;;;;;;4.05;3.75;;;24.00;66.50;;;;;;5115317;28;20215;-71
2022/08/18 06:44:44;;;;;;;4.60;4.20;;;24.00;66.40;;;;;;5097277;28;20184;-70
2022/08/18 06:47:24;;;;;;;4.03;3.72;;;24.00;66.40;;;;;;5096687;28;20175;-70
2022/08/18 06:50:39;;;;;;;4.00;3.70;;;24.00;66.60;;;;;;5080313;28;20199;-70
2022/08/18 06:53:07;;;;;;;4.10;3.80;;;24.00;66.60;;;;;;5115394;28;20201;-70
2022/08/18 06:55:38;;;;;;;4.00;3.70;;;24.00;66.70;;;;;;5114305;28;20232;-70
2022/08/18 06:58:19;;;;;;;3.97;3.67;;;24.00;66.60;;;;;;5114417;28;20203;-72
2022/08/18 07:01:00;;;;;;;4.07;3.78;;;24.00;66.80;;;;;;5096943;28;20219;-71
2022/08/18 07:03:53;;;;;;;4.00;3.70;;;24.00;66.70;;;;;;5115145;28;20191;-70
2022/08/18 07:06:22;;;;;;;3.55;3.35;;;24.00;66.80;;;;;;5107735;28;20200;-71
2022/08/18 07:08:52;;;;;;;3.80;3.50;;;24.00;66.70;;;;;;5096189;28;20208;-70
2022/08/18 07:11:32;;;;;;;3.70;3.50;;;24.00;66.70;;;;;;5113878;28;20183;-70
2022/08/18 07:14:20;;;;;;;3.58;3.38;;;24.00;67.00;;;;;;5114829;28;20176;-70
2022/08/18 07:16:47;;;;;;;3.72;3.53;;;24.00;67.00;;;;;;5113011;28;20180;-70
2022/08/18 07:19:19;;;;;;;3.88;3.58;;;24.00;66.80;;;;;;5114685;28;20219;-70
2022/08/18 07:22:05;;;;;;;3.42;3.22;;;24.00;66.90;;;;;;5114717;28;20255;-70
2022/08/18 07:24:40;;;;;;;4.05;3.75;;;24.00;66.90;;;;;;5114988;28;20180;-70
2022/08/18 07:27:21;;;;;;;3.55;3.25;;;24.00;66.90;;;;;;5112870;28;20179;-70
2022/08/18 07:30:08;;;;;;;3.70;3.40;;;24.00;67.00;;;;;;5113319;28;20180;-70
2022/08/18 07:32:49;;;;;;;3.60;3.30;;;24.00;67.00;;;;;;5096397;28;20190;-70
2022/08/18 07:35:27;;;;;;;3.35;3.15;;;24.10;67.10;;;;;;5096519;28;20229;-70
2022/08/18 07:38:01;;;;;;;3.75;3.45;;;24.00;67.10;;;;;;5095567;28;20204;-70
2022/08/18 07:40:34;;;;;;;4.30;4.00;;;24.00;66.90;;;;;;5096667;28;20172;-70
2022/08/18 07:43:12;;;;;;;3.90;3.60;;;24.00;66.90;;;;;;5114287;28;20223;-70
2022/08/18 07:45:46;;;;;;;3.53;3.30;;;24.00;66.90;;;;;;5092072;28;20715;-70
2022/08/18 07:48:20;;;;;;;3.88;3.58;;;24.00;66.90;;;;;;5075228;28;20204;-70
2022/08/18 07:51:00;;;;;;;3.47;3.28;;;24.00;66.90;;;;;;5094154;28;20165;-70
2022/08/18 07:54:00;;;;;;;3.67;3.47;;;24.00;67.00;;;;;;5059026;28;20215;-70
2022/08/18 07:56:47;;;;;;;3.83;3.45;;;24.00;67.00;;;;;;5058931;28;20574;-70
2022/08/18 07:59:35;;;;;;;3.78;3.47;;;24.10;67.10;;;;;;5093931;28;20236;-71
2022/08/18 08:02:38;;;;;;;3.63;3.35;;;24.00;67.10;;;;;;5058727;28;20205;-70
2022/08/18 08:05:14;;;;;;;3.65;3.40;;;24.00;67.00;;;;;;5093608;28;20181;-70
2022/08/18 08:07:57;;;;;;;4.10;3.80;;;24.10;67.10;;;;;;5074794;28;20204;-70
2022/08/18 08:10:32;;;;;;;3.70;3.40;;;24.10;67.00;;;;;;5075754;28;20199;-70
2022/08/18 08:13:27;;;;;;;4.00;3.70;;;24.10;67.00;;;;;;5112602;28;20192;-70
2022/08/18 08:16:12;;;;;;;4.13;3.63;;;24.10;66.90;;;;;;5112384;28;20191;-70
2022/08/18 08:19:26;;;;;;;3.88;3.58;;;24.10;67.10;;;;;;5077998;28;20220;-70
2022/08/18 08:22:12;;;;;;;4.00;3.70;;;24.10;67.00;;;;;;5095315;28;20226;-70
2022/08/18 08:25:36;;;;;;;3.58;3.28;;;24.10;67.10;;;;;;5094720;28;20283;-70
2022/08/18 08:28:41;;;;;;;3.90;3.60;;;24.10;67.00;;;;;;5112347;28;20208;-71
2022/08/18 08:31:37;;;;;;;3.85;3.60;;;24.10;67.10;;;;;;5095451;28;20282;-70
2022/08/18 08:34:29;;;;;;;3.75;3.53;;;24.10;66.80;;;;;;5095281;28;20222;-72
2022/08/18 08:37:13;;;;;;;3.70;3.50;;;24.10;66.90;;;;;;5094623;28;20188;-70
2022/08/18 08:39:59;;;;;;;3.75;3.55;;;24.10;67.00;;;;;;5110245;28;20611;-71
2022/08/18 08:42:56;;;;;;;3.47;3.28;;;24.20;67.20;;;;;;5103180;28;20207;-71
2022/08/18 08:45:38;;;;;;;4.03;3.72;;;24.20;67.10;;;;;;5072857;28;20197;-70
2022/08/18 08:48:16;;;;;;;3.75;3.45;;;24.20;67.10;;;;;;5072499;28;20230;-70
2022/08/18 08:51:34;;;;;;;3.90;3.65;;;24.10;66.90;;;;;;5092691;28;20276;-70
2022/08/18 08:54:16;;;;;;;4.03;3.63;;;24.10;67.20;;;;;;5086620;28;20279;-71
2022/08/18 08:56:47;;;;;;;3.30;3.10;;;24.20;67.30;;;;;;5074065;28;20218;-69
2022/08/18 08:59:20;;;;;;;3.83;3.53;;;24.10;67.00;;;;;;5058043;28;20295;-70
2022/08/18 09:02:16;;;;;;;3.75;3.55;;;24.10;67.00;;;;;;5074385;28;20224;-71
2022/08/18 09:05:06;;;;;;;4.18;3.88;;;24.20;67.00;;;;;;5074061;28;20185;-70
2022/08/18 09:07:59;;;;;;;3.60;3.30;;;24.20;67.10;;;;;;5073737;28;20216;-70
2022/08/18 09:10:48;;;;;;;4.00;3.70;;;24.20;66.90;;;;;;5074370;28;20181;-71
2022/08/18 09:13:42;;;;;;;4.03;3.72;;;24.20;66.90;;;;;;5074263;28;20268;-70
2022/08/18 09:16:53;;;;;;;3.80;3.50;;;24.20;67.00;;;;;;5092205;28;20208;-70
2022/08/18 09:19:57;;;;;;;4.00;3.70;;;24.20;66.90;;;;;;5074091;28;20201;-70
2022/08/18 09:22:38;;;;;;;3.90;3.67;;;24.20;66.90;;;;;;5090886;28;20276;-70
2022/08/18 09:25:28;;;;;;;4.25;3.95;;;24.20;67.10;;;;;;5074130;28;20169;-70
2022/08/18 09:28:14;;;;;;;4.07;3.80;;;24.20;67.00;;;;;;5073477;28;20224;-71
2022/08/18 09:31:05;;;;;;;3.70;3.50;;;24.20;67.50;;;;;;5074202;28;20280;-70
2022/08/18 09:33:39;;;;;;;3.97;3.67;;;24.20;67.10;;;;;;5073436;28;20275;-71
2022/08/18 09:36:52;;;;;;;3.65;3.45;;;24.20;67.00;;;;;;5092021;28;20176;-72
2022/08/18 09:42:51;;;;;;;3.97;3.67;;;24.30;67.20;;;;;;5073755;28;20258;-71
2022/08/18 09:45:30;;;;;;;3.60;3.30;;;24.20;67.00;;;;;;5077746;28;20539;-70
2022/08/18 09:48:33;;;;;;;3.70;3.40;;;24.20;67.00;;;;;;5089322;28;20196;-72
2022/08/18 09:51:14;;;;;;;3.78;3.47;;;24.20;67.10;;;;;;5073906;28;20212;-71
2022/08/18 09:53:52;;;;;;;3.50;3.30;;;24.20;67.00;;;;;;5073781;28;20191;-72
2022/08/18 09:56:48;;;;;;;3.90;3.58;;;24.20;67.00;;;;;;5092369;28;20241;-71
2022/08/18 09:59:32;;;;;;;3.58;3.35;;;24.20;67.10;;;;;;5090475;28;20232;-71
2022/08/18 10:01:59;;;;;;;3.50;3.20;;;24.30;67.10;;;;;;5073523;28;20219;-69
2022/08/18 10:04:47;;;;;;;3.75;3.55;;;24.20;67.00;;;;;;5073649;28;20230;-71
2022/08/18 10:07:34;;;;;;;3.60;3.40;;;24.30;67.10;;;;;;5089805;28;20656;-71
2022/08/18 10:10:26;;;;;;;4.03;3.72;;;24.30;67.00;;;;;;5092452;28;20188;-71
2022/08/18 10:13:06;;;;;;;3.42;3.22;;;24.30;67.10;;;;;;5111456;28;20531;-71
2022/08/18 10:15:41;;;;;;;3.72;3.47;;;24.30;67.10;;;;;;5092810;28;20657;-70
2022/08/18 10:18:42;;;;;;;3.47;3.28;;;24.30;67.00;;;;;;5084751;28;20616;-71
2022/08/18 10:21:26;;;;;;;4.05;3.75;;;24.20;67.00;;;;;;5090734;28;20658;-70
2022/08/18 10:24:04;;;;;;;4.10;3.80;;;24.30;67.10;;;;;;5127681;28;20230;-70
2022/08/18 10:26:30;;;;;;;3.40;3.20;;;24.20;67.10;;;;;;5094439;28;20180;-70
2022/08/18 10:29:02;;;;;;;3.70;3.40;;;24.30;67.10;;;;;;5092970;28;20200;-71
2022/08/18 10:31:56;;;;;;;3.83;3.63;;;24.30;66.90;;;;;;5110723;28;20181;-70
2022/08/18 10:34:54;;;;;;;3.60;3.40;;;24.30;66.90;;;;;;5093594;28;20180;-70
2022/08/18 10:37:30;;;;;;;3.50;3.30;;;24.30;66.80;;;;;;5092942;28;20263;-70
2022/08/18 10:40:22;;;;;;;3.92;3.58;;;24.30;66.80;;;;;;5112242;28;20206;-70
2022/08/18 10:43:01;;;;;;;3.58;3.38;;;24.30;66.90;;;;;;5085425;28;20228;-70
2022/08/18 10:45:43;;;;;;;3.42;3.22;;;24.30;66.80;;;;;;5096718;28;20183;-70
2022/08/18 10:48:09;;;;;;;3.47;3.17;;;24.30;66.90;;;;;;5114806;28;20291;-70
2022/08/18 10:51:14;;;;;;;3.83;3.63;;;24.30;66.90;;;;;;5114348;28;20263;-70
2022/08/18 10:54:02;;;;;;;3.58;3.28;;;24.30;66.80;;;;;;5094814;28;20241;-70
2022/08/18 10:56:51;;;;;;;3.30;3.10;;;24.30;66.80;;;;;;5114972;28;20203;-70
2022/08/18 10:59:45;;;;;;;3.67;3.38;;;24.30;66.90;;;;;;5096931;28;20204;-70
2022/08/18 11:02:39;;;;;;;3.67;3.42;;;24.30;66.80;;;;;;5113963;28;20223;-70
2022/08/18 11:05:10;;;;;;;3.47;3.28;;;24.30;66.80;;;;;;5115054;28;20176;-70
2022/08/18 11:07:41;;;;;;;3.40;3.20;;;24.30;66.90;;;;;;5079269;28;20257;-70
2022/08/18 11:10:47;;;;;;;3.92;3.65;;;24.30;66.80;;;;;;5113926;28;20276;-70
2022/08/18 11:13:34;;;;;;;3.53;3.22;;;24.30;66.60;;;;;;5113571;28;20643;-70
2022/08/18 11:16:29;;;;;;;3.38;3.17;;;24.30;66.70;;;;;;5096645;28;20561;-71
2022/08/18 11:19:08;;;;;;;3.25;3.03;;;24.30;66.60;;;;;;5113017;28;20678;-70
2022/08/18 11:21:37;;;;;;;3.55;3.28;;;24.30;66.60;;;;;;5113838;28;20227;-70
2022/08/18 11:24:09;;;;;;;3.60;3.40;;;24.30;66.60;;;;;;5096651;28;20218;-70
2022/08/18 11:26:54;;;;;;;3.00;2.80;;;24.30;66.80;;;;;;5096476;28;20180;-70
2022/08/18 11:29:36;;;;;;;3.33;3.13;;;24.30;66.60;;;;;;5096445;28;20710;-71
2022/08/18 11:32:37;;;;;;;3.50;3.30;;;24.30;66.60;;;;;;5114655;28;20172;-70
2022/08/18 11:35:18;;;;;;;3.70;3.40;;;24.30;66.50;;;;;;5076204;28;20252;-70
2022/08/18 11:37:54;;;;;;;3.65;3.30;;;24.30;66.50;;;;;;5095616;28;20210;-71
2022/08/18 11:40:28;;;;;;;3.90;3.60;;;24.30;66.50;;;;;;5096555;28;20187;-71
2022/08/18 11:43:26;;;;;;;3.50;3.30;;;24.30;66.60;;;;;;5112980;28;20219;-70
2022/08/18 11:46:31;;;;;;;3.58;3.38;;;24.30;66.40;;;;;;5096205;28;20184;-71
2022/08/18 11:49:12;;;;;;;3.50;3.30;;;24.30;66.50;;;;;;5094912;28;20206;-70
2022/08/18 11:52:20;;;;;;;3.63;3.42;;;24.30;66.50;;;;;;5114248;28;20252;-71
2022/08/18 11:54:50;;;;;;;3.50;3.30;;;24.40;66.60;;;;;;5095101;28;20210;-70
2022/08/18 11:57:48;;;;;;;3.38;3.17;;;24.30;66.60;;;;;;5094603;28;20188;-70
2022/08/18 12:00:40;;;;;;;3.72;3.42;;;24.30;66.60;;;;;;5095765;28;20176;-70
2022/08/18 12:03:19;;;;;;;3.78;3.58;;;24.30;66.50;;;;;;5078218;28;20710;-70
2022/08/18 12:05:54;;;;;;;3.60;3.20;;;24.30;66.50;;;;;;5095824;28;20182;-70
2022/08/18 12:08:46;;;;;;;3.67;3.38;;;24.30;66.50;;;;;;5111975;28;20208;-70
2022/08/18 12:11:18;;;;;;;3.92;3.63;;;24.30;66.50;;;;;;5095195;28;20215;-70
2022/08/18 12:13:55;;;;;;;3.80;3.50;;;24.40;66.60;;;;;;5095410;28;20636;-70
2022/08/18 12:16:40;;;;;;;3.63;3.33;;;24.40;66.80;;;;;;5113583;28;20258;-70
2022/08/18 12:19:10;;;;;;;3.70;3.50;;;24.30;66.60;;;;;;5095032;28;20196;-70
2022/08/18 12:21:49;;;;;;;3.40;3.15;;;24.40;66.70;;;;;;5113412;28;20295;-72
2022/08/18 12:24:29;;;;;;;3.60;3.30;;;24.40;66.60;;;;;;5092243;28;20221;-70
2022/08/18 12:26:57;;;;;;;3.50;3.28;;;24.30;66.40;;;;;;5112385;28;20597;-70
2022/08/18 12:29:25;;;;;;;3.75;3.45;;;24.40;66.60;;;;;;5089745;28;20228;-70
2022/08/18 12:31:53;;;;;;;3.35;3.15;;;24.40;66.60;;;;;;5112881;28;20181;-71
2022/08/18 12:34:23;;;;;;;4.07;3.78;;;24.40;66.60;;;;;;5095065;28;20191;-70
2022/08/18 12:36:51;;;;;;;3.70;3.45;;;24.30;66.40;;;;;;5113177;28;20266;-71
2022/08/18 12:39:17;;;;;;;3.60;3.35;;;24.40;66.50;;;;;;5112592;28;20236;-70
2022/08/18 12:41:43;;;;;;;3.33;3.03;;;24.40;66.60;;;;;;5095053;28;20239;-70
2022/08/18 12:44:09;;;;;;;3.85;3.60;;;24.30;66.40;;;;;;5095031;28;20239;-70
2022/08/18 12:46:35;;;;;;;3.75;3.45;;;24.40;66.50;;;;;;5094822;28;20183;-71
2022/08/18 12:49:04;;;;;;;3.83;3.53;;;24.30;66.60;;;;;;5112640;28;20283;-70
2022/08/18 12:51:30;;;;;;;3.70;3.40;;;24.40;66.70;;;;;;5094802;28;20192;-70
2022/08/18 12:53:56;;;;;;;3.75;3.45;;;24.40;66.60;;;;;;5111806;28;20180;-70
2022/08/18 12:56:29;;;;;;;3.78;3.47;;;24.40;67.30;;;;;;5094738;28;20271;-70
2022/08/18 12:58:59;;;;;;;3.92;3.63;;;24.40;66.60;;;;;;5112125;28;20256;-70
2022/08/18 13:01:25;;;;;;;3.90;3.58;;;24.40;66.50;;;;;;5112944;28;20188;-70
2022/08/18 13:03:54;;;;;;;3.70;3.40;;;24.30;66.50;;;;;;5112783;28;20205;-70
2022/08/18 13:06:24;;;;;;;3.55;3.35;;;24.30;66.50;;;;;;5077530;28;20191;-70
2022/08/18 13:08:53;;;;;;;3.65;3.35;;;24.30;66.50;;;;;;5111240;28;20207;-70
2022/08/18 13:11:19;;;;;;;3.58;3.38;;;24.40;66.60;;;;;;5094147;28;20199;-70
2022/08/18 13:13:45;;;;;;;4.07;3.78;;;24.40;66.50;;;;;;5094539;28;20211;-71
2022/08/18 13:16:12;;;;;;;4.18;3.85;;;24.40;66.50;;;;;;5077362;28;20685;-70
2022/08/18 13:18:40;;;;;;;4.20;3.83;;;24.40;66.50;;;;;;5111999;28;20219;-70
2022/08/18 13:21:10;;;;;;;3.80;3.50;;;24.40;66.60;;;;;;5112457;28;20188;-70
2022/08/18 13:23:37;;;;;;;4.18;3.88;;;24.40;66.60;;;;;;5077665;28;20211;-71
2022/08/18 13:26:06;;;;;;;4.28;3.88;;;24.40;66.70;;;;;;5111208;28;20184;-71
2022/08/18 13:28:34;;;;;;;3.97;3.72;;;24.40;66.60;;;;;;5093491;28;20210;-70
2022/08/18 13:31:00;;;;;;;4.03;3.72;;;24.30;66.50;;;;;;5111312;28;20657;-70
2022/08/18 13:33:26;;;;;;;3.70;3.50;;;24.40;66.60;;;;;;5077314;28;20180;-70
2022/08/18 13:35:53;;;;;;;3.78;3.47;;;24.40;66.60;;;;;;5112372;28;20555;-70
2022/08/18 13:38:22;;;;;;;4.15;3.85;;;24.40;66.60;;;;;;5093937;28;20200;-71
2022/08/18 13:40:52;;;;;;;3.53;3.30;;;24.40;67.10;;;;;;5093910;28;20186;-70
2022/08/18 13:43:25;;;;;;;4.30;4.00;;;24.40;66.60;;;;;;5109853;28;20197;-70
2022/08/18 13:45:57;;;;;;;3.60;3.33;;;24.40;67.40;;;;;;5077254;28;20209;-70
2022/08/18 13:48:24;;;;;;;3.95;3.63;;;24.40;66.80;;;;;;5076468;28;20624;-71